createdAt,value
2023-01-22T00:00:37.789Z,-2.50
2023-01-22T00:03:23.462Z,-2.30
2023-01-22T00:06:10.925Z,-2.30
2023-01-22T00:08:56.301Z,-2.30
2023-01-22T00:11:42.441Z,-2.30
2023-01-22T00:14:27.766Z,-2.30
2023-01-22T00:17:14.351Z,-2.20
2023-01-22T00:19:59.652Z,-2.10
2023-01-22T00:22:45.132Z,-2.00
2023-01-22T00:25:30.684Z,-1.90
2023-01-22T00:28:17.016Z,-1.50
2023-01-22T00:31:04.257Z,-2.10
2023-01-22T00:33:49.740Z,-1.90
2023-01-22T00:36:35.399Z,-2.00
2023-01-22T00:39:20.587Z,-1.90
2023-01-22T00:42:05.932Z,-1.90
2023-01-22T00:44:51.341Z,-1.50
2023-01-22T00:47:37.034Z,-1.70
2023-01-22T00:50:22.336Z,-1.80
2023-01-22T00:53:07.645Z,-1.80
2023-01-22T00:55:58.683Z,-1.80
2023-01-22T00:58:43.957Z,-1.60
2023-01-22T01:01:29.238Z,-1.50
2023-01-22T01:04:14.923Z,-1.70
2023-01-22T01:07:00.147Z,-1.70
2023-01-22T01:09:45.751Z,-1.70
2023-01-22T01:12:31.146Z,-1.90
2023-01-22T01:15:16.672Z,-1.50
2023-01-22T01:18:01.942Z,-0.70
2023-01-22T01:20:54.418Z,-1.50
2023-01-22T01:23:40.559Z,-1.50
2023-01-22T01:26:27.029Z,-1.50
2023-01-22T01:29:12.661Z,-1.40
2023-01-22T01:31:58.213Z,-1.40
2023-01-22T01:34:45.623Z,-1.40
2023-01-22T01:37:30.893Z,-1.30
2023-01-22T01:40:16.763Z,-1.20
2023-01-22T01:43:02.410Z,-1.20
2023-01-22T01:45:47.964Z,-1.20
2023-01-22T01:48:33.659Z,-1.30
2023-01-22T01:51:27.396Z,-1.60
2023-01-22T01:54:13.382Z,-1.50
2023-01-22T01:57:12.669Z,-1.40
2023-01-22T02:00:00.039Z,-0.90
2023-01-22T02:02:46.010Z,-1.30
2023-01-22T02:05:37.720Z,-1.20
2023-01-22T02:08:24.001Z,-1.20
2023-01-22T02:11:10.683Z,-1.20
2023-01-22T02:14:02.540Z,-1.10
2023-01-22T02:16:48.092Z,-1.30
2023-01-22T02:19:33.641Z,-1.10
2023-01-22T02:22:25.508Z,-1.30
2023-01-22T02:25:12.101Z,-1.60
2023-01-22T02:27:57.645Z,-1.50
2023-01-22T02:30:43.733Z,-1.60
2023-01-22T02:33:29.266Z,-1.70
2023-01-22T02:36:16.246Z,-1.60
2023-01-22T02:39:02.065Z,-1.70
2023-01-22T02:41:47.332Z,-1.80
2023-01-22T02:44:33.011Z,-1.80
2023-01-22T02:47:18.277Z,-1.70
2023-01-22T02:50:04.492Z,-1.80
2023-01-22T02:52:50.108Z,-1.80
2023-01-22T02:55:35.943Z,-1.80
2023-01-22T02:58:21.535Z,-1.80
2023-01-22T03:01:20.905Z,-1.70
2023-01-22T03:04:13.193Z,-1.80
2023-01-22T03:06:58.850Z,-1.70
2023-01-22T03:09:44.942Z,-1.60
2023-01-22T03:12:30.359Z,-1.50
2023-01-22T03:15:34.411Z,-1.60
2023-01-22T03:18:38.052Z,-0.50
2023-01-22T03:21:25.686Z,-1.60
2023-01-22T03:24:10.995Z,-1.70
2023-01-22T03:26:56.693Z,-1.70
2023-01-22T03:29:42.009Z,-1.80
2023-01-22T03:32:27.801Z,-1.80
2023-01-22T03:35:13.076Z,-1.70
2023-01-22T03:37:58.517Z,-1.70
2023-01-22T03:40:44.054Z,-1.80
2023-01-22T03:43:30.036Z,-1.70
2023-01-22T03:46:18.172Z,-1.80
2023-01-22T03:49:03.491Z,-1.70
2023-01-22T03:51:48.711Z,-1.80
2023-01-22T03:54:34.411Z,-1.70
2023-01-22T03:57:19.770Z,-1.60
2023-01-22T04:00:07.688Z,-1.70
2023-01-22T04:02:53.729Z,-1.60
2023-01-22T04:05:38.970Z,-1.60
2023-01-22T04:08:24.577Z,-1.40
2023-01-22T04:11:10.775Z,-1.40
2023-01-22T04:13:56.760Z,-1.40
2023-01-22T04:16:42.265Z,-1.20
2023-01-22T04:19:27.727Z,-1.10
2023-01-22T04:22:13.346Z,-1.50
2023-01-22T04:24:58.890Z,-1.40
2023-01-22T04:27:45.231Z,-1.30
2023-01-22T04:30:31.071Z,-1.40
2023-01-22T04:33:16.254Z,-1.40
2023-01-22T04:36:02.262Z,-1.30
2023-01-22T04:38:47.566Z,-1.50
2023-01-22T04:41:33.237Z,-1.60
2023-01-22T04:44:18.798Z,-1.30
2023-01-22T04:47:04.289Z,-1.60
2023-01-22T04:49:50.320Z,-1.60
2023-01-22T04:52:35.742Z,-1.60
2023-01-22T04:55:21.914Z,-1.60
2023-01-22T04:58:07.171Z,-1.70
2023-01-22T05:00:54.975Z,-1.50
2023-01-22T05:03:40.564Z,-1.70
2023-01-22T05:06:26.097Z,-1.60
2023-01-22T05:09:11.602Z,-1.40
2023-01-22T05:11:57.184Z,-1.60
2023-01-22T05:14:42.672Z,-1.50
2023-01-22T05:17:28.247Z,-1.60
2023-01-22T05:20:14.192Z,-1.40
2023-01-22T05:22:59.728Z,-1.40
2023-01-22T05:25:49.556Z,-1.50
2023-01-22T05:28:35.175Z,0.70
2023-01-22T05:31:20.734Z,-1.40
2023-01-22T05:34:06.318Z,-1.50
2023-01-22T05:36:52.984Z,-1.40
2023-01-22T05:39:38.495Z,-1.40
2023-01-22T05:42:24.073Z,-1.30
2023-01-22T05:45:10.320Z,-1.20
2023-01-22T05:47:55.662Z,-1.20
2023-01-22T05:50:41.686Z,-1.10
2023-01-22T05:53:27.221Z,-1.20
2023-01-22T05:56:12.627Z,-1.20
2023-01-22T05:58:58.295Z,-1.20
2023-01-22T06:01:43.787Z,-1.30
2023-01-22T06:04:29.491Z,-1.20
2023-01-22T06:07:14.980Z,-0.80
2023-01-22T06:10:00.508Z,-1.10
2023-01-22T06:12:45.991Z,-0.30
2023-01-22T06:15:31.488Z,-1.20
2023-01-22T06:18:17.106Z,-1.20
2023-01-22T06:21:04.915Z,-1.30
2023-01-22T06:23:50.227Z,-1.30
2023-01-22T06:26:35.763Z,-1.40
2023-01-22T06:29:21.282Z,-1.30
2023-01-22T06:32:06.950Z,-0.50
2023-01-22T06:34:52.486Z,-1.40
2023-01-22T06:37:37.985Z,-1.40
2023-01-22T06:40:23.481Z,-1.30
2023-01-22T06:43:10.802Z,-1.10
2023-01-22T06:45:56.510Z,-1.10
2023-01-22T06:48:43.705Z,-1.10
2023-01-22T06:51:32.698Z,-0.20
2023-01-22T06:54:18.482Z,-1.20
2023-01-22T06:57:05.542Z,-1.50
2023-01-22T06:59:50.805Z,-1.20
2023-01-22T07:02:36.134Z,-1.10
2023-01-22T07:05:23.059Z,-1.10
2023-01-22T07:08:08.389Z,-0.90
2023-01-22T07:10:54.110Z,-1.00
2023-01-22T07:13:39.341Z,-1.10
2023-01-22T07:16:25.057Z,-1.20
2023-01-22T07:19:10.228Z,-1.30
2023-01-22T07:21:55.458Z,-1.20
2023-01-22T07:24:40.864Z,-1.40
2023-01-22T07:27:26.375Z,-1.50
2023-01-22T07:30:12.638Z,-1.60
2023-01-22T07:33:00.366Z,-1.40
2023-01-22T07:35:54.375Z,-1.10
2023-01-22T07:38:39.584Z,0.30
2023-01-22T07:41:26.492Z,-1.20
2023-01-22T07:44:12.649Z,-1.10
2023-01-22T07:46:58.181Z,-1.00
2023-01-22T07:49:45.236Z,-0.90
2023-01-22T07:52:30.681Z,-1.00
2023-01-22T07:55:16.574Z,-0.80
2023-01-22T07:58:04.760Z,-0.80
2023-01-22T08:00:50.448Z,-0.70
2023-01-22T08:03:37.845Z,-0.60
2023-01-22T08:06:23.494Z,-0.50
2023-01-22T08:09:08.729Z,-0.30
2023-01-22T08:11:54.326Z,-0.40
2023-01-22T08:14:39.863Z,-0.20
2023-01-22T08:17:25.170Z,0.40
2023-01-22T08:20:11.258Z,-0.10
2023-01-22T08:23:00.871Z,-0.20
2023-01-22T08:25:46.262Z,0.20
2023-01-22T08:28:32.101Z,-0.20
2023-01-22T08:31:27.514Z,-0.20
2023-01-22T08:34:13.986Z,-0.10
2023-01-22T08:36:59.478Z,0.00
2023-01-22T08:39:44.935Z,0.10
2023-01-22T08:42:30.401Z,-0.50
2023-01-22T08:45:15.973Z,-0.60
2023-01-22T08:48:01.670Z,-0.50
2023-01-22T08:50:47.076Z,-0.40
2023-01-22T08:53:32.246Z,-0.20
2023-01-22T08:56:17.652Z,0.00
2023-01-22T08:59:06.603Z,-0.10
2023-01-22T09:01:52.721Z,0.10
2023-01-22T09:04:40.291Z,0.30
2023-01-22T09:07:26.125Z,0.30
2023-01-22T09:10:12.935Z,0.10
2023-01-22T09:13:01.528Z,0.00
2023-01-22T09:15:46.791Z,0.00
2023-01-22T09:18:32.411Z,-0.10
2023-01-22T09:21:18.007Z,0.20
2023-01-22T09:24:04.375Z,0.40
2023-01-22T09:26:50.071Z,0.20
2023-01-22T09:29:35.393Z,0.30
2023-01-22T09:32:21.076Z,0.30
2023-01-22T09:35:08.313Z,0.10
2023-01-22T09:37:54.194Z,0.40
2023-01-22T09:40:52.974Z,1.10
2023-01-22T09:43:49.245Z,1.10
2023-01-22T09:46:39.387Z,0.80
2023-01-22T09:49:31.538Z,1.10
2023-01-22T09:52:17.205Z,1.00
2023-01-22T09:55:02.809Z,0.80
2023-01-22T09:57:51.620Z,0.60
2023-01-22T10:00:41.309Z,0.60
2023-01-22T10:03:37.780Z,0.70
2023-01-22T10:06:23.880Z,0.50
2023-01-22T10:09:15.696Z,0.50
2023-01-22T10:12:14.209Z,0.50
2023-01-22T10:14:59.738Z,0.50
2023-01-22T10:17:45.189Z,0.70
2023-01-22T10:20:31.269Z,0.50
2023-01-22T10:23:23.476Z,0.50
2023-01-22T10:26:31.022Z,1.60
2023-01-22T10:29:33.075Z,0.70
2023-01-22T10:32:30.223Z,1.00
2023-01-22T10:35:20.751Z,1.40
2023-01-22T10:38:06.260Z,1.20
2023-01-22T10:41:02.885Z,1.80
2023-01-22T10:43:48.803Z,3.00
2023-01-22T10:46:34.130Z,2.30
2023-01-22T10:49:27.600Z,2.00
2023-01-22T10:52:38.497Z,2.70
2023-01-22T10:55:27.235Z,3.20
2023-01-22T10:58:18.146Z,3.10
2023-01-22T11:01:06.888Z,3.00
2023-01-22T11:03:52.276Z,2.40
2023-01-22T11:06:43.988Z,2.30
2023-01-22T11:09:44.771Z,2.60
2023-01-22T11:12:36.760Z,2.80
2023-01-22T11:15:25.746Z,2.70
2023-01-22T11:18:17.683Z,2.70
2023-01-22T11:21:16.509Z,2.70
2023-01-22T11:24:48.534Z,2.80
2023-01-22T11:27:45.765Z,2.50
2023-01-22T11:30:37.009Z,2.40
2023-01-22T11:33:48.159Z,2.20
2023-01-22T11:36:42.876Z,2.00
2023-01-22T11:39:43.700Z,1.90
2023-01-22T11:42:50.494Z,1.70
2023-01-22T11:46:03.751Z,1.40
2023-01-22T11:49:10.127Z,1.80
2023-01-22T11:51:58.585Z,0.90
2023-01-22T11:54:59.537Z,0.90
2023-01-22T11:58:19.592Z,1.10
2023-01-22T12:01:47.285Z,0.80
2023-01-22T12:05:18.502Z,0.70
2023-01-22T12:08:03.804Z,0.70
2023-01-22T12:10:54.876Z,0.60
2023-01-22T12:14:12.019Z,0.60
2023-01-22T12:17:15.637Z,0.50
2023-01-22T12:20:26.706Z,0.50
2023-01-22T12:23:22.872Z,0.60
2023-01-22T12:26:31.357Z,0.70
2023-01-22T12:29:23.626Z,0.80
2023-01-22T12:32:12.952Z,0.90
2023-01-22T12:35:15.910Z,0.90
2023-01-22T12:38:12.384Z,1.20
2023-01-22T12:41:11.142Z,1.30
2023-01-22T12:44:00.189Z,1.00
2023-01-22T12:47:08.171Z,1.00
2023-01-22T12:49:53.814Z,1.10
2023-01-22T12:52:39.938Z,1.20
2023-01-22T12:55:35.175Z,1.20
2023-01-22T12:58:25.425Z,1.40
2023-01-22T13:01:13.600Z,1.40
2023-01-22T13:04:01.863Z,1.10
2023-01-22T13:06:47.828Z,1.20
2023-01-22T13:09:37.208Z,1.70
2023-01-22T13:12:27.914Z,1.60
2023-01-22T13:15:36.983Z,2.90
2023-01-22T13:18:27.496Z,1.60
2023-01-22T13:21:15.806Z,1.60
2023-01-22T13:24:12.826Z,1.50
2023-01-22T13:27:00.969Z,1.50
2023-01-22T13:29:46.652Z,1.20
2023-01-22T13:32:32.131Z,1.00
2023-01-22T13:35:19.871Z,0.90
2023-01-22T13:38:05.624Z,0.70
2023-01-22T13:40:58.624Z,0.90
2023-01-22T13:43:43.993Z,0.50
2023-01-22T13:46:29.786Z,0.60
2023-01-22T13:49:19.430Z,0.70
2023-01-22T13:52:08.161Z,0.90
2023-01-22T13:55:16.570Z,1.00
2023-01-22T13:58:04.382Z,1.00
2023-01-22T14:00:52.909Z,0.60
2023-01-22T14:03:40.212Z,0.60
2023-01-22T14:06:25.511Z,0.70
2023-01-22T14:09:11.138Z,0.50
2023-01-22T14:11:57.336Z,0.60
2023-01-22T14:14:43.481Z,0.70
2023-01-22T14:17:36.770Z,0.80
2023-01-22T14:20:22.184Z,0.60
2023-01-22T14:23:07.955Z,0.70
2023-01-22T14:25:55.245Z,0.80
2023-01-22T14:28:40.854Z,0.90
2023-01-22T14:31:26.231Z,0.90
2023-01-22T14:34:12.621Z,0.90
2023-01-22T14:36:58.147Z,1.00
2023-01-22T14:39:43.667Z,0.70
2023-01-22T14:42:29.357Z,1.10
2023-01-22T14:45:16.773Z,0.50
2023-01-22T14:48:04.164Z,0.50
2023-01-22T14:50:50.703Z,0.50
2023-01-22T14:53:35.994Z,0.60
2023-01-22T14:56:21.358Z,0.40
2023-01-22T14:59:06.835Z,0.60
2023-01-22T15:01:52.345Z,0.60
2023-01-22T15:04:42.103Z,0.70
2023-01-22T15:07:27.569Z,0.70
2023-01-22T15:10:13.031Z,0.70
2023-01-22T15:12:58.338Z,0.80
2023-01-22T15:15:43.561Z,0.80
2023-01-22T15:18:29.000Z,0.70
2023-01-22T15:21:14.900Z,0.60
2023-01-22T15:24:01.556Z,0.50
2023-01-22T15:26:47.182Z,0.40
2023-01-22T15:29:32.937Z,1.60
2023-01-22T15:32:18.279Z,0.50
2023-01-22T15:35:04.004Z,0.40
2023-01-22T15:37:49.344Z,0.20
2023-01-22T15:40:37.707Z,0.30
2023-01-22T15:43:23.347Z,0.10
2023-01-22T15:46:08.752Z,0.20
2023-01-22T15:48:54.464Z,0.20
2023-01-22T15:51:41.075Z,0.20
2023-01-22T15:54:27.013Z,0.10
2023-01-22T15:57:13.690Z,0.00
2023-01-22T15:59:58.846Z,-0.10
2023-01-22T16:02:44.925Z,0.00
2023-01-22T16:05:30.479Z,0.00
2023-01-22T16:08:16.221Z,-0.10
2023-01-22T16:11:01.808Z,-0.10
2023-01-22T16:13:47.692Z,-0.10
2023-01-22T16:16:36.445Z,-0.20
2023-01-22T16:19:22.113Z,-0.30
2023-01-22T16:22:07.433Z,-0.30
2023-01-22T16:24:52.922Z,-0.30
2023-01-22T16:27:39.156Z,-0.50
2023-01-22T16:30:24.624Z,-0.40
2023-01-22T16:33:27.751Z,-0.30
2023-01-22T16:36:16.063Z,-0.30
2023-01-22T16:39:01.771Z,-0.60
2023-01-22T16:41:49.081Z,-0.30
2023-01-22T16:44:34.652Z,-0.30
2023-01-22T16:47:20.495Z,-0.10
2023-01-22T16:50:06.518Z,0.20
2023-01-22T16:52:51.806Z,-0.20
2023-01-22T16:55:37.437Z,-0.50
2023-01-22T16:58:22.583Z,-0.20
2023-01-22T17:01:11.381Z,-0.50
2023-01-22T17:03:56.935Z,-0.60
2023-01-22T17:06:46.065Z,-0.50
2023-01-22T17:09:33.662Z,-0.50
2023-01-22T17:12:19.152Z,-0.40
2023-01-22T17:15:05.703Z,-0.40
2023-01-22T17:17:51.105Z,-0.50
2023-01-22T17:20:37.349Z,-0.60
2023-01-22T17:23:23.048Z,-0.40
2023-01-22T17:26:10.879Z,-0.50
2023-01-22T17:28:56.470Z,-0.60
2023-01-22T17:31:42.462Z,-0.40
2023-01-22T17:34:27.974Z,-0.60
2023-01-22T17:37:13.698Z,-0.50
2023-01-22T17:39:58.925Z,-0.50
2023-01-22T17:42:44.240Z,-0.50
2023-01-22T17:45:29.933Z,-0.20
2023-01-22T17:48:15.948Z,-0.50
2023-01-22T17:51:09.918Z,-0.20
2023-01-22T17:53:57.433Z,-0.60
2023-01-22T17:56:45.571Z,-0.60
2023-01-22T17:59:31.472Z,-0.10
2023-01-22T18:02:17.070Z,-0.60
2023-01-22T18:05:02.884Z,-0.60
2023-01-22T18:07:48.062Z,-0.80
2023-01-22T18:10:34.155Z,-0.50
2023-01-22T18:13:19.837Z,-0.60
2023-01-22T18:16:07.377Z,-0.50
2023-01-22T18:18:53.157Z,-0.60
2023-01-22T18:21:39.187Z,-0.60
2023-01-22T18:24:26.481Z,-0.60
2023-01-22T18:27:12.117Z,-0.60
2023-01-22T18:29:57.343Z,-0.60
2023-01-22T18:32:42.866Z,-0.60
2023-01-22T18:35:29.449Z,-0.60
2023-01-22T18:38:14.925Z,-0.70
2023-01-22T18:41:08.627Z,-0.50
2023-01-22T18:43:56.300Z,-0.60
2023-01-22T18:46:45.303Z,-0.60
2023-01-22T18:49:30.887Z,-0.30
2023-01-22T18:52:16.497Z,-0.60
2023-01-22T18:55:02.230Z,-0.70
2023-01-22T18:58:29.780Z,-0.60
2023-01-22T19:01:23.258Z,-0.70
2023-01-22T19:04:09.887Z,-0.70
2023-01-22T19:06:56.951Z,-0.70
2023-01-22T19:09:42.911Z,-0.70
2023-01-22T19:12:28.356Z,-0.60
2023-01-22T19:15:13.854Z,-0.70
2023-01-22T19:18:00.324Z,-0.60
2023-01-22T19:20:45.693Z,-0.60
2023-01-22T19:23:31.653Z,-0.60
2023-01-22T19:26:21.771Z,-0.70
2023-01-22T19:29:12.255Z,-0.60
2023-01-22T19:31:57.805Z,-0.60
2023-01-22T19:34:43.431Z,-0.90
2023-01-22T19:37:29.691Z,-0.60
2023-01-22T19:40:15.334Z,-0.80
2023-01-22T19:43:00.655Z,-0.60
2023-01-22T19:45:46.185Z,-0.60
2023-01-22T19:48:31.618Z,-0.50
2023-01-22T19:51:17.688Z,-0.50
2023-01-22T19:54:05.513Z,-0.40
2023-01-22T19:56:51.653Z,-0.50
2023-01-22T19:59:37.314Z,-0.50
2023-01-22T20:02:23.665Z,-0.40
2023-01-22T20:05:09.395Z,-0.50
2023-01-22T20:07:57.349Z,-0.60
2023-01-22T20:10:43.140Z,-0.50
2023-01-22T20:13:29.690Z,-0.60
2023-01-22T20:16:24.844Z,-0.40
2023-01-22T20:19:10.308Z,-0.60
2023-01-22T20:21:56.347Z,-0.60
2023-01-22T20:24:42.403Z,-0.50
2023-01-22T20:27:28.035Z,-0.50
2023-01-22T20:30:13.759Z,-0.50
2023-01-22T20:32:59.364Z,-0.40
2023-01-22T20:35:44.787Z,-0.60
2023-01-22T20:38:30.798Z,-0.60
2023-01-22T20:41:18.075Z,-0.50
2023-01-22T20:44:03.428Z,-0.70
2023-01-22T20:46:48.911Z,-0.60
2023-01-22T20:49:34.067Z,-0.60
2023-01-22T20:52:20.019Z,-0.30
2023-01-22T20:55:05.881Z,-0.70
2023-01-22T20:57:51.405Z,-0.60
2023-01-22T21:00:36.924Z,-0.30
2023-01-22T21:03:24.164Z,-0.80
2023-01-22T21:06:14.032Z,-0.90
2023-01-22T21:09:01.166Z,-0.70
2023-01-22T21:11:46.631Z,-0.70
2023-01-22T21:14:32.136Z,-0.80
2023-01-22T21:17:18.846Z,-0.60
2023-01-22T21:20:06.174Z,-0.60
2023-01-22T21:22:51.520Z,-0.80
2023-01-22T21:25:37.274Z,-0.70
2023-01-22T21:28:22.852Z,-0.70
2023-01-22T21:31:10.266Z,-0.80
2023-01-22T21:34:04.043Z,-0.80
2023-01-22T21:36:53.694Z,-0.80
2023-01-22T21:39:44.976Z,-0.80
2023-01-22T21:42:49.110Z,-0.70
2023-01-22T21:45:53.067Z,-0.70
2023-01-22T21:48:38.128Z,-0.60
2023-01-22T21:51:24.674Z,-0.60
2023-01-22T21:54:10.329Z,-0.70
2023-01-22T21:56:56.840Z,-0.70
2023-01-22T21:59:43.813Z,-0.60
2023-01-22T22:02:29.314Z,-0.70
2023-01-22T22:05:15.039Z,-0.60
2023-01-22T22:08:02.914Z,-0.70
2023-01-22T22:10:52.378Z,-0.60
2023-01-22T22:13:37.945Z,-0.70
2023-01-22T22:16:24.017Z,-0.70
2023-01-22T22:19:10.305Z,-0.70
2023-01-22T22:21:55.914Z,-0.60
2023-01-22T22:24:41.488Z,-0.60
2023-01-22T22:27:27.839Z,-0.70
2023-01-22T22:30:13.637Z,-0.70
2023-01-22T22:32:59.533Z,-0.80
2023-01-22T22:35:48.222Z,-0.70
2023-01-22T22:38:34.073Z,-0.70
2023-01-22T22:41:28.451Z,-0.60
2023-01-22T22:44:15.080Z,-0.60
2023-01-22T22:47:00.153Z,-0.60
2023-01-22T22:49:45.656Z,-0.70
2023-01-22T22:52:34.040Z,-0.80
2023-01-22T22:55:19.468Z,-0.70
2023-01-22T22:58:04.888Z,-0.70
2023-01-22T23:00:50.574Z,-0.60
2023-01-22T23:03:37.531Z,-0.40
2023-01-22T23:06:26.344Z,-0.50
2023-01-22T23:09:14.810Z,-0.80
2023-01-22T23:12:00.124Z,-0.70
2023-01-22T23:14:45.719Z,-0.90
2023-01-22T23:17:31.253Z,-0.90
2023-01-22T23:20:17.014Z,-0.90
2023-01-22T23:23:02.698Z,-0.80
2023-01-22T23:25:47.829Z,-1.00
2023-01-22T23:28:33.753Z,-0.90
2023-01-22T23:31:19.380Z,-1.00
2023-01-22T23:34:06.703Z,-0.90
2023-01-22T23:36:52.510Z,-1.10
2023-01-22T23:39:37.817Z,-1.00
2023-01-22T23:42:23.551Z,-1.00
2023-01-22T23:45:11.626Z,-1.00
2023-01-22T23:47:57.461Z,-1.00
2023-01-22T23:50:47.412Z,-1.10
2023-01-22T23:53:36.516Z,-1.10
2023-01-22T23:56:24.915Z,-1.10
2023-01-22T23:59:11.399Z,-1.00
